Main page
METAR-TAF:

METAR-TAF

Airports :

Warton Aerodrome

Preston, England

latitude: 53-44-42N, longitude: 2-53-02W, elevation: 17 m

Current weather observation

The report was made 2 hours and 0 minutes ago, at 19:20 UTC
Wind 6 kt from the South
Temperature 10°C
Humidity 87%
Pressure 1018 hPa
Visibility 10 km or more
Few clouds at a height of 4700 ft

METAR: EGNO 131920Z 17006KT 9999 FEW047 10/08 Q1018

Time: 21:20 (21:20 UTC)

Forecast

The report was made 7 hours and 24 minutes ago, at 13:56 UTC
Forecast valid from 13 at 15 UTC to 13 at 19 UTC
Wind 11 kt from the Southwest
Visibility 10 km or more
Few clouds at a height of 2000 ft
Becoming
from 13 at 15 UTC to 13 at 18 UTC
Wind 9 kt from the South

TAF: EGNO 131356Z 1315/1319 23011KT 9999 FEW020 BECMG 1315/1318 17009KT

Weather observations and forecasts of more than 4000 airports (METAR and TAF reports).

The available stations are represented by yellow and red dots on the map.

Hover mouse over dot to see the name of the station.

Then click to see weather observations and forecasts.

To change the map : click on the green buttons with a black cross to zoom in, on the green button with a dash to zoom out, or on the green arrows for adjacent maps.


METAR-TAF: